sensor_id;sensor_type;location;lat;lon;timestamp;pressure;altitude;pressure_sealevel;temperature;humidity
21129;BME280;10722;51.910;8.352;2023-04-28T00:02:25;100650.03;;;9.43;55.73
21129;BME280;10722;51.910;8.352;2023-04-28T00:05:10;100648.25;;;9.41;55.69
21129;BME280;10722;51.910;8.352;2023-04-28T00:07:56;100653.50;;;9.44;56.22
21129;BME280;10722;51.910;8.352;2023-04-28T00:10:41;100649.88;;;9.37;56.31
21129;BME280;10722;51.910;8.352;2023-04-28T00:13:26;100636.91;;;9.34;55.76
21129;BME280;10722;51.910;8.352;2023-04-28T00:16:12;100633.41;;;9.31;56.02
21129;BME280;10722;51.910;8.352;2023-04-28T00:18:57;100633.63;;;9.41;56.31
21129;BME280;10722;51.910;8.352;2023-04-28T00:21:42;100627.72;;;9.47;56.22
21129;BME280;10722;51.910;8.352;2023-04-28T00:24:27;100626.69;;;9.39;56.24
21129;BME280;10722;51.910;8.352;2023-04-28T00:27:12;100617.03;;;9.30;56.08
21129;BME280;10722;51.910;8.352;2023-04-28T00:29:57;100626.75;;;9.40;56.88
21129;BME280;10722;51.910;8.352;2023-04-28T00:32:42;100623.06;;;9.29;56.90
21129;BME280;10722;51.910;8.352;2023-04-28T00:35:28;100616.19;;;9.31;57.05
21129;BME280;10722;51.910;8.352;2023-04-28T00:38:13;100625.81;;;9.38;57.11
21129;BME280;10722;51.910;8.352;2023-04-28T00:40:58;100607.81;;;9.41;56.68
21129;BME280;10722;51.910;8.352;2023-04-28T00:43:45;100610.34;;;9.38;56.75
21129;BME280;10722;51.910;8.352;2023-04-28T00:46:32;100616.41;;;9.40;57.17
21129;BME280;10722;51.910;8.352;2023-04-28T00:49:17;100614.75;;;9.46;57.58
21129;BME280;10722;51.910;8.352;2023-04-28T00:52:06;100617.34;;;9.44;57.53
21129;BME280;10722;51.910;8.352;2023-04-28T00:54:51;100620.09;;;9.53;57.74
21129;BME280;10722;51.910;8.352;2023-04-28T00:57:37;100619.91;;;9.44;57.62
21129;BME280;10722;51.910;8.352;2023-04-28T01:00:22;100612.91;;;9.38;57.80
21129;BME280;10722;51.910;8.352;2023-04-28T01:03:08;100607.72;;;9.37;58.04
21129;BME280;10722;51.910;8.352;2023-04-28T01:05:54;100606.00;;;9.37;57.82
21129;BME280;10722;51.910;8.352;2023-04-28T01:08:39;100612.00;;;9.36;58.01
21129;BME280;10722;51.910;8.352;2023-04-28T01:11:24;100587.91;;;9.37;57.63
21129;BME280;10722;51.910;8.352;2023-04-28T01:14:09;100603.41;;;9.36;58.13
21129;BME280;10722;51.910;8.352;2023-04-28T01:16:55;100604.09;;;9.29;58.46
21129;BME280;10722;51.910;8.352;2023-04-28T01:19:40;100596.28;;;9.24;58.53
21129;BME280;10722;51.910;8.352;2023-04-28T01:22:26;100590.38;;;9.31;58.88
21129;BME280;10722;51.910;8.352;2023-04-28T01:25:10;100579.00;;;9.22;58.83
21129;BME280;10722;51.910;8.352;2023-04-28T01:27:55;100589.41;;;9.26;58.79
21129;BME280;10722;51.910;8.352;2023-04-28T01:30:41;100592.16;;;9.34;58.80
21129;BME280;10722;51.910;8.352;2023-04-28T01:33:26;100587.06;;;9.37;58.57
21129;BME280;10722;51.910;8.352;2023-04-28T01:36:11;100605.19;;;9.40;59.12
21129;BME280;10722;51.910;8.352;2023-04-28T01:38:56;100598.22;;;9.36;59.24
21129;BME280;10722;51.910;8.352;2023-04-28T01:41:41;100579.94;;;9.25;59.08
21129;BME280;10722;51.910;8.352;2023-04-28T01:44:27;100583.50;;;9.32;59.62
21129;BME280;10722;51.910;8.352;2023-04-28T01:47:12;100578.25;;;9.27;59.62
21129;BME280;10722;51.910;8.352;2023-04-28T01:49:57;100580.06;;;9.31;59.61
21129;BME280;10722;51.910;8.352;2023-04-28T01:52:43;100571.44;;;9.31;59.52
21129;BME280;10722;51.910;8.352;2023-04-28T01:55:46;100572.19;;;9.25;59.73
21129;BME280;10722;51.910;8.352;2023-04-28T01:58:31;100585.22;;;9.31;60.23
21129;BME280;10722;51.910;8.352;2023-04-28T02:01:17;100573.91;;;9.26;60.34
21129;BME280;10722;51.910;8.352;2023-04-28T02:04:02;100565.38;;;9.29;60.18
21129;BME280;10722;51.910;8.352;2023-04-28T02:06:47;100556.88;;;9.34;59.98
21129;BME280;10722;51.910;8.352;2023-04-28T02:09:33;100553.31;;;9.28;60.05
21129;BME280;10722;51.910;8.352;2023-04-28T02:12:18;100557.59;;;9.27;60.18
21129;BME280;10722;51.910;8.352;2023-04-28T02:15:03;100549.75;;;9.21;60.22
21129;BME280;10722;51.910;8.352;2023-04-28T02:17:49;100564.44;;;9.25;61.03
21129;BME280;10722;51.910;8.352;2023-04-28T02:20:35;100559.09;;;9.16;61.29
21129;BME280;10722;51.910;8.352;2023-04-28T02:23:19;100559.88;;;9.12;61.31
21129;BME280;10722;51.910;8.352;2023-04-28T02:26:04;100565.19;;;9.19;60.95
21129;BME280;10722;51.910;8.352;2023-04-28T02:28:50;100560.94;;;9.22;61.32
21129;BME280;10722;51.910;8.352;2023-04-28T02:31:35;100558.31;;;9.20;61.24
21129;BME280;10722;51.910;8.352;2023-04-28T02:34:20;100544.59;;;9.23;61.36
21129;BME280;10722;51.910;8.352;2023-04-28T02:37:05;100544.44;;;9.15;61.93
21129;BME280;10722;51.910;8.352;2023-04-28T02:39:51;100554.13;;;9.25;62.10
21129;BME280;10722;51.910;8.352;2023-04-28T02:42:35;100555.66;;;9.15;61.92
21129;BME280;10722;51.910;8.352;2023-04-28T02:45:20;100535.13;;;9.22;62.11
21129;BME280;10722;51.910;8.352;2023-04-28T02:48:05;100537.06;;;9.33;61.55
21129;BME280;10722;51.910;8.352;2023-04-28T02:50:51;100536.81;;;9.19;62.33
21129;BME280;10722;51.910;8.352;2023-04-28T02:53:36;100538.69;;;9.28;62.38
21129;BME280;10722;51.910;8.352;2023-04-28T02:56:21;100524.97;;;9.29;62.23
21129;BME280;10722;51.910;8.352;2023-04-28T02:59:06;100524.06;;;9.29;62.21
21129;BME280;10722;51.910;8.352;2023-04-28T03:01:51;100523.16;;;9.25;62.46
21129;BME280;10722;51.910;8.352;2023-04-28T03:04:37;100523.25;;;9.30;62.36
21129;BME280;10722;51.910;8.352;2023-04-28T03:07:22;100524.84;;;9.25;62.86
21129;BME280;10722;51.910;8.352;2023-04-28T03:10:07;100523.03;;;9.20;62.87
21129;BME280;10722;51.910;8.352;2023-04-28T03:12:52;100520.41;;;9.17;63.27
21129;BME280;10722;51.910;8.352;2023-04-28T03:15:38;100526.69;;;9.32;63.24
21129;BME280;10722;51.910;8.352;2023-04-28T03:18:23;100523.19;;;9.28;63.05
21129;BME280;10722;51.910;8.352;2023-04-28T03:21:08;100525.91;;;9.34;63.31
21129;BME280;10722;51.910;8.352;2023-04-28T03:23:53;100524.13;;;9.32;63.02
21129;BME280;10722;51.910;8.352;2023-04-28T03:26:37;100520.78;;;9.37;62.91
21129;BME280;10722;51.910;8.352;2023-04-28T03:29:22;100516.59;;;9.42;62.83
21129;BME280;10722;51.910;8.352;2023-04-28T03:32:08;100508.69;;;9.33;62.70
21129;BME280;10722;51.910;8.352;2023-04-28T03:34:53;100509.69;;;9.41;62.91
21129;BME280;10722;51.910;8.352;2023-04-28T03:37:38;100500.19;;;9.39;63.38
21129;BME280;10722;51.910;8.352;2023-04-28T03:40:24;100504.38;;;9.32;63.61
21129;BME280;10722;51.910;8.352;2023-04-28T03:43:09;100495.81;;;9.36;63.62
21129;BME280;10722;51.910;8.352;2023-04-28T03:45:54;100492.34;;;9.34;63.28
21129;BME280;10722;51.910;8.352;2023-04-28T03:48:39;100501.09;;;9.41;63.46
21129;BME280;10722;51.910;8.352;2023-04-28T03:51:24;100496.53;;;9.28;63.37
21129;BME280;10722;51.910;8.352;2023-04-28T03:54:09;100490.56;;;9.30;63.83
21129;BME280;10722;51.910;8.352;2023-04-28T03:56:54;100491.56;;;9.38;63.66
21129;BME280;10722;51.910;8.352;2023-04-28T03:59:40;100498.34;;;9.33;63.69
21129;BME280;10722;51.910;8.352;2023-04-28T04:02:25;100494.16;;;9.38;63.78
21129;BME280;10722;51.910;8.352;2023-04-28T04:05:10;100492.56;;;9.47;63.77
21129;BME280;10722;51.910;8.352;2023-04-28T04:07:55;100493.34;;;9.42;63.64
21129;BME280;10722;51.910;8.352;2023-04-28T04:10:40;100495.09;;;9.43;63.73
21129;BME280;10722;51.910;8.352;2023-04-28T04:13:25;100504.69;;;9.49;64.46
21129;BME280;10722;51.910;8.352;2023-04-28T04:16:11;100501.03;;;9.39;64.28
21129;BME280;10722;51.910;8.352;2023-04-28T04:18:56;100494.19;;;9.41;64.42
21129;BME280;10722;51.910;8.352;2023-04-28T04:21:41;100494.16;;;9.38;64.30
21129;BME280;10722;51.910;8.352;2023-04-28T04:24:26;100503.69;;;9.42;64.61
21129;BME280;10722;51.910;8.352;2023-04-28T04:27:11;100505.28;;;9.37;65.24
21129;BME280;10722;51.910;8.352;2023-04-28T04:29:56;100510.59;;;9.45;65.41
21129;BME280;10722;51.910;8.352;2023-04-28T04:32:41;100507.06;;;9.38;65.89
21129;BME280;10722;51.910;8.352;2023-04-28T04:35:27;100503.72;;;9.44;65.75
21129;BME280;10722;51.910;8.352;2023-04-28T04:38:12;100506.09;;;9.33;66.42
21129;BME280;10722;51.910;8.352;2023-04-28T04:40:57;100503.56;;;9.35;66.51
21129;BME280;10722;51.910;8.352;2023-04-28T04:43:42;100497.47;;;9.33;66.59
21129;BME280;10722;51.910;8.352;2023-04-28T04:46:27;100512.16;;;9.35;67.06
21129;BME280;10722;51.910;8.352;2023-04-28T04:49:12;100509.53;;;9.32;67.38
21129;BME280;10722;51.910;8.352;2023-04-28T04:51:57;100506.00;;;9.29;67.69
21129;BME280;10722;51.910;8.352;2023-04-28T04:54:42;100498.34;;;9.33;67.86
21129;BME280;10722;51.910;8.352;2023-04-28T04:57:27;100509.53;;;9.32;68.20
21129;BME280;10722;51.910;8.352;2023-04-28T05:00:12;100508.63;;;9.32;68.59
21129;BME280;10722;51.910;8.352;2023-04-28T05:02:57;100492.16;;;9.25;68.92
21129;BME280;10722;51.910;8.352;2023-04-28T05:05:43;100487.03;;;9.27;69.07
21129;BME280;10722;51.910;8.352;2023-04-28T05:08:30;100487.13;;;9.31;69.12
21129;BME280;10722;51.910;8.352;2023-04-28T05:11:15;100486.31;;;9.34;69.38
21129;BME280;10722;51.910;8.352;2023-04-28T05:14:00;100487.25;;;9.39;69.25
21129;BME280;10722;51.910;8.352;2023-04-28T05:16:45;100483.75;;;9.35;69.43
21129;BME280;10722;51.910;8.352;2023-04-28T05:19:30;100484.63;;;9.36;69.62
21129;BME280;10722;51.910;8.352;2023-04-28T05:22:16;100487.13;;;9.31;70.14
21129;BME280;10722;51.910;8.352;2023-04-28T05:25:01;100490.66;;;9.36;70.23
21129;BME280;10722;51.910;8.352;2023-04-28T05:27:47;100490.66;;;9.36;70.36
21129;BME280;10722;51.910;8.352;2023-04-28T05:30:32;100494.19;;;9.41;70.35
21129;BME280;10722;51.910;8.352;2023-04-28T05:33:17;100494.84;;;9.31;70.80
21129;BME280;10722;51.910;8.352;2023-04-28T05:36:03;100489.75;;;9.33;70.82
21129;BME280;10722;51.910;8.352;2023-04-28T05:38:48;100491.50;;;9.35;71.10
21129;BME280;10722;51.910;8.352;2023-04-28T05:41:34;100506.97;;;9.34;71.72
21129;BME280;10722;51.910;8.352;2023-04-28T05:44:19;100496.56;;;9.31;71.90
21129;BME280;10722;51.910;8.352;2023-04-28T05:47:05;100497.69;;;9.43;71.93
21129;BME280;10722;51.910;8.352;2023-04-28T05:49:50;100495.94;;;9.42;72.18
21129;BME280;10722;51.910;8.352;2023-04-28T05:52:35;100492.56;;;9.47;72.89
21129;BME280;10722;51.910;8.352;2023-04-28T05:55:20;100492.63;;;9.50;72.77
21129;BME280;10722;51.910;8.352;2023-04-28T05:58:06;100495.22;;;9.50;73.54
21129;BME280;10722;51.910;8.352;2023-04-28T06:00:51;100496.19;;;9.56;74.82
21129;BME280;10722;51.910;8.352;2023-04-28T06:03:36;100504.78;;;9.55;76.06
21129;BME280;10722;51.910;8.352;2023-04-28T06:06:22;100508.22;;;9.56;76.65
21129;BME280;10722;51.910;8.352;2023-04-28T06:09:07;100506.56;;;9.59;77.13
21129;BME280;10722;51.910;8.352;2023-04-28T06:11:52;100514.97;;;9.48;79.24
21129;BME280;10722;51.910;8.352;2023-04-28T06:14:38;100500.38;;;9.50;79.52
21129;BME280;10722;51.910;8.352;2023-04-28T06:17:23;100506.31;;;9.44;80.88
21129;BME280;10722;51.910;8.352;2023-04-28T06:20:09;100505.69;;;9.57;81.43
21129;BME280;10722;51.910;8.352;2023-04-28T06:22:54;100495.16;;;9.48;82.04
21129;BME280;10722;51.910;8.352;2023-04-28T06:25:39;100484.88;;;9.50;82.21
21129;BME280;10722;51.910;8.352;2023-04-28T06:28:24;100494.31;;;9.48;83.10
21129;BME280;10722;51.910;8.352;2023-04-28T06:31:09;100480.53;;;9.49;83.78
21129;BME280;10722;51.910;8.352;2023-04-28T06:33:55;100472.13;;;9.57;83.51
21129;BME280;10722;51.910;8.352;2023-04-28T06:36:40;100467.81;;;9.58;83.75
21129;BME280;10722;51.910;8.352;2023-04-28T06:39:26;100467.81;;;9.58;83.81
21129;BME280;10722;51.910;8.352;2023-04-28T06:42:11;100471.47;;;9.71;84.32
21129;BME280;10722;51.910;8.352;2023-04-28T06:44:56;100471.41;;;9.68;84.62
21129;BME280;10722;51.910;8.352;2023-04-28T06:47:42;100462.03;;;9.73;84.39
21129;BME280;10722;51.910;8.352;2023-04-28T06:50:27;100455.19;;;9.76;84.25
21129;BME280;10722;51.910;8.352;2023-04-28T06:53:13;100458.59;;;9.74;84.14
21129;BME280;10722;51.910;8.352;2023-04-28T06:55:58;100460.31;;;9.73;85.35
21129;BME280;10722;51.910;8.352;2023-04-28T06:58:43;100463.94;;;9.84;84.73
21129;BME280;10722;51.910;8.352;2023-04-28T07:01:28;100454.50;;;9.86;84.72
21129;BME280;10722;51.910;8.352;2023-04-28T07:04:14;100452.78;;;9.85;85.11
21129;BME280;10722;51.910;8.352;2023-04-28T07:06:59;100456.47;;;10.01;85.11
21129;BME280;10722;51.910;8.352;2023-04-28T07:09:44;100450.34;;;9.95;85.41
21129;BME280;10722;51.910;8.352;2023-04-28T07:12:30;100449.69;;;10.08;85.14
21129;BME280;10722;51.910;8.352;2023-04-28T07:15:14;100453.31;;;10.21;85.63
21129;BME280;10722;51.910;8.352;2023-04-28T07:17:59;100440.47;;;10.25;85.27
21129;BME280;10722;51.910;8.352;2023-04-28T07:20:45;100444.03;;;10.30;85.12
21129;BME280;10722;51.910;8.352;2023-04-28T07:23:30;100429.38;;;10.31;85.33
21129;BME280;10722;51.910;8.352;2023-04-28T07:26:15;100447.97;;;10.10;86.61
21129;BME280;10722;51.910;8.352;2023-04-28T07:29:01;100448.97;;;10.18;87.17
21129;BME280;10722;51.910;8.352;2023-04-28T07:31:46;100441.25;;;10.21;87.43
21129;BME280;10722;51.910;8.352;2023-04-28T07:34:32;100445.59;;;10.24;88.06
21129;BME280;10722;51.910;8.352;2023-04-28T07:37:17;100445.81;;;10.36;87.97
21129;BME280;10722;51.910;8.352;2023-04-28T07:40:03;100432.91;;;10.38;88.46
21129;BME280;10722;51.910;8.352;2023-04-28T07:42:48;100442.53;;;10.48;88.44
21129;BME280;10722;51.910;8.352;2023-04-28T07:45:37;100427.13;;;10.57;88.39
21129;BME280;10722;51.910;8.352;2023-04-28T07:48:23;100424.50;;;10.55;89.05
21129;BME280;10722;51.910;8.352;2023-04-28T07:51:08;100414.34;;;10.71;89.21
21129;BME280;10722;51.910;8.352;2023-04-28T07:53:53;100417.00;;;10.77;88.95
21129;BME280;10722;51.910;8.352;2023-04-28T07:56:38;100410.22;;;10.87;89.26
21129;BME280;10722;51.910;8.352;2023-04-28T07:59:23;100405.09;;;10.91;89.47
21129;BME280;10722;51.910;8.352;2023-04-28T08:02:08;100402.56;;;10.97;89.37
21129;BME280;10722;51.910;8.352;2023-04-28T08:04:53;100407.81;;;11.02;89.50
21129;BME280;10722;51.910;8.352;2023-04-28T08:07:39;100401.09;;;11.21;89.57
21129;BME280;10722;51.910;8.352;2023-04-28T08:10:24;100379.56;;;11.27;89.15
21129;BME280;10722;51.910;8.352;2023-04-28T08:13:10;100375.53;;;11.58;88.40
21129;BME280;10722;51.910;8.352;2023-04-28T08:15:55;100376.72;;;12.00;88.09
21129;BME280;10722;51.910;8.352;2023-04-28T08:18:41;100362.09;;;12.14;86.56
21129;BME280;10722;51.910;8.352;2023-04-28T08:21:26;100346.75;;;12.68;85.50
21129;BME280;10722;51.910;8.352;2023-04-28T08:24:11;100344.22;;;13.06;84.01
21129;BME280;10722;51.910;8.352;2023-04-28T08:26:56;100339.91;;;13.17;82.21
21129;BME280;10722;51.910;8.352;2023-04-28T08:29:41;100343.34;;;12.96;81.70
21129;BME280;10722;51.910;8.352;2023-04-28T08:32:27;100341.50;;;12.54;82.31
21129;BME280;10722;51.910;8.352;2023-04-28T08:35:12;100365.56;;;12.18;83.49
21129;BME280;10722;51.910;8.352;2023-04-28T08:37:58;100382.72;;;11.94;84.93
21129;BME280;10722;51.910;8.352;2023-04-28T08:40:43;100384.28;;;11.77;85.84
21129;BME280;10722;51.910;8.352;2023-04-28T08:43:28;100391.31;;;11.85;87.07
21129;BME280;10722;51.910;8.352;2023-04-28T08:46:14;100402.63;;;12.01;87.21
21129;BME280;10722;51.910;8.352;2023-04-28T08:49:04;100403.47;;;11.97;86.92
21129;BME280;10722;51.910;8.352;2023-04-28T08:51:58;100408.75;;;12.09;87.56
21129;BME280;10722;51.910;8.352;2023-04-28T08:54:46;100414.88;;;12.19;87.68
21129;BME280;10722;51.910;8.352;2023-04-28T08:57:51;100406.25;;;12.26;87.02
21129;BME280;10722;51.910;8.352;2023-04-28T09:00:39;100412.19;;;12.10;86.82
21129;BME280;10722;51.910;8.352;2023-04-28T09:03:25;100414.78;;;12.05;87.20
21129;BME280;10722;51.910;8.352;2023-04-28T09:06:10;100413.91;;;12.06;87.29
21129;BME280;10722;51.910;8.352;2023-04-28T09:09:16;100404.31;;;11.96;87.26
21129;BME280;10722;51.910;8.352;2023-04-28T09:12:02;100411.13;;;11.85;88.24
21129;BME280;10722;51.910;8.352;2023-04-28T09:14:56;100409.44;;;11.87;89.34
21129;BME280;10722;51.910;8.352;2023-04-28T09:17:49;100415.38;;;11.72;91.89
21129;BME280;10722;51.910;8.352;2023-04-28T09:20:35;100413.56;;;11.63;95.58
21129;BME280;10722;51.910;8.352;2023-04-28T09:23:23;100416.16;;;11.63;98.67
21129;BME280;10722;51.910;8.352;2023-04-28T09:26:08;100418.72;;;11.62;100.00
21129;BME280;10722;51.910;8.352;2023-04-28T09:29:10;100403.16;;;11.57;100.00
21129;BME280;10722;51.910;8.352;2023-04-28T09:32:13;100402.13;;;11.43;100.00
21129;BME280;10722;51.910;8.352;2023-04-28T09:34:59;100385.88;;;11.59;100.00
21129;BME280;10722;51.910;8.352;2023-04-28T09:37:44;100385.97;;;11.70;100.00
21129;BME280;10722;51.910;8.352;2023-04-28T09:40:29;100391.31;;;11.85;100.00
21129;BME280;10722;51.910;8.352;2023-04-28T09:43:34;100387.94;;;12.02;100.00
21129;BME280;10722;51.910;8.352;2023-04-28T09:46:27;100390.63;;;12.11;100.00
21129;BME280;10722;51.910;8.352;2023-04-28T09:49:13;100381.97;;;12.15;100.00
21129;BME280;10722;51.910;8.352;2023-04-28T09:52:12;100384.56;;;12.15;100.00
21129;BME280;10722;51.910;8.352;2023-04-28T09:55:00;100385.31;;;11.96;100.00
21129;BME280;10722;51.910;8.352;2023-04-28T09:57:48;100384.50;;;12.07;100.00
21129;BME280;10722;51.910;8.352;2023-04-28T10:00:35;100377.66;;;12.14;100.00
21129;BME280;10722;51.910;8.352;2023-04-28T10:03:25;100363.75;;;11.97;100.00
21129;BME280;10722;51.910;8.352;2023-04-28T10:06:14;100359.41;;;12.02;100.00
21129;BME280;10722;51.910;8.352;2023-04-28T10:08:59;100356.91;;;12.16;100.00
21129;BME280;10722;51.910;8.352;2023-04-28T10:11:46;100356.22;;;12.47;100.00
21129;BME280;10722;51.910;8.352;2023-04-28T10:14:31;100355.38;;;12.64;100.00
21129;BME280;10722;51.910;8.352;2023-04-28T10:17:17;100350.25;;;12.85;100.00
21129;BME280;10722;51.910;8.352;2023-04-28T10:20:03;100341.63;;;12.92;100.00
21129;BME280;10722;51.910;8.352;2023-04-28T10:25:41;100333.69;;;12.46;100.00
21129;BME280;10722;51.910;8.352;2023-04-28T10:28:26;100337.22;;;12.56;100.00
21129;BME280;10722;51.910;8.352;2023-04-28T10:34:20;100326.84;;;12.62;98.35
21129;BME280;10722;51.910;8.352;2023-04-28T10:37:06;100316.38;;;12.34;97.87
21129;BME280;10722;51.910;8.352;2023-04-28T10:46:11;100313.03;;;12.89;98.33
21129;BME280;10722;51.910;8.352;2023-04-28T10:48:57;100307.03;;;13.18;97.93
21129;BME280;10722;51.910;8.352;2023-04-28T10:51:42;100302.66;;;13.23;96.61
21129;BME280;10722;51.910;8.352;2023-04-28T10:54:28;100280.16;;;13.25;94.80
21129;BME280;10722;51.910;8.352;2023-04-28T10:57:14;100283.66;;;13.36;94.54
21129;BME280;10722;51.910;8.352;2023-04-28T11:00:28;100265.41;;;13.67;93.12
21129;BME280;10722;51.910;8.352;2023-04-28T11:12:23;100247.13;;;13.93;91.02
21129;BME280;10722;51.910;8.352;2023-04-28T11:15:11;100234.06;;;14.11;89.96
21129;BME280;10722;51.910;8.352;2023-04-28T11:17:58;100230.56;;;14.14;89.47
21129;BME280;10722;51.910;8.352;2023-04-28T11:20:47;100228.72;;;14.36;88.82
21129;BME280;10722;51.910;8.352;2023-04-28T11:23:39;100217.41;;;14.42;87.95
21129;BME280;10722;51.910;8.352;2023-04-28T11:26:26;100201.75;;;14.46;86.75
21129;BME280;10722;51.910;8.352;2023-04-28T11:29:11;100199.97;;;14.59;86.91
21129;BME280;10722;51.910;8.352;2023-04-28T11:31:56;100196.56;;;14.46;86.37
21129;BME280;10722;51.910;8.352;2023-04-28T11:34:50;100191.34;;;14.48;85.90
21129;BME280;10722;51.910;8.352;2023-04-28T11:37:35;100201.00;;;14.33;86.89
21129;BME280;10722;51.910;8.352;2023-04-28T11:40:21;100201.13;;;14.04;86.79
21129;BME280;10722;51.910;8.352;2023-04-28T11:43:06;100214.91;;;14.26;87.20
21129;BME280;10722;51.910;8.352;2023-04-28T11:45:51;100206.97;;;14.46;86.79
21129;BME280;10722;51.910;8.352;2023-04-28T11:48:36;100211.31;;;14.47;86.32
21129;BME280;10722;51.910;8.352;2023-04-28T11:54:19;100206.69;;;14.86;86.72
21129;BME280;10722;51.910;8.352;2023-04-28T11:57:05;100199.94;;;14.61;85.14
21129;BME280;10722;51.910;8.352;2023-04-28T11:59:50;100192.16;;;14.59;85.81
21129;BME280;10722;51.910;8.352;2023-04-28T12:02:36;100190.13;;;14.96;85.12
21129;BME280;10722;51.910;8.352;2023-04-28T12:05:21;100164.09;;;14.93;83.24
21129;BME280;10722;51.910;8.352;2023-04-28T12:08:06;100166.84;;;14.76;83.66
21129;BME280;10722;51.910;8.352;2023-04-28T12:11:11;100175.41;;;14.91;84.39
21129;BME280;10722;51.910;8.352;2023-04-28T12:14:05;100146.00;;;14.81;83.41
21129;BME280;10722;51.910;8.352;2023-04-28T12:16:51;100153.72;;;14.89;83.83
21129;BME280;10722;51.910;8.352;2023-04-28T12:19:42;100157.16;;;14.95;83.68
21129;BME280;10722;51.910;8.352;2023-04-28T12:22:28;100173.22;;;15.37;84.02
21129;BME280;10722;51.910;8.352;2023-04-28T12:25:15;100159.16;;;15.52;82.95
21129;BME280;10722;51.910;8.352;2023-04-28T12:28:03;100166.00;;;15.61;82.22
21129;BME280;10722;51.910;8.352;2023-04-28T12:31:03;100155.84;;;15.36;82.29
21129;BME280;10722;51.910;8.352;2023-04-28T12:33:48;100162.72;;;15.43;83.14
21129;BME280;10722;51.910;8.352;2023-04-28T12:36:33;100145.25;;;15.52;82.23
21129;BME280;10722;51.910;8.352;2023-04-28T12:39:18;100145.13;;;15.59;81.81
21129;BME280;10722;51.910;8.352;2023-04-28T12:42:03;100140.19;;;15.38;82.28
21129;BME280;10722;51.910;8.352;2023-04-28T12:44:49;100145.34;;;15.44;82.00
21129;BME280;10722;51.910;8.352;2023-04-28T12:47:35;100142.53;;;15.61;81.48
21129;BME280;10722;51.910;8.352;2023-04-28T12:50:20;100144.44;;;15.46;81.87
21129;BME280;10722;51.910;8.352;2023-04-28T12:53:06;100158.09;;;15.70;82.14
21129;BME280;10722;51.910;8.352;2023-04-28T12:55:51;100149.41;;;15.69;81.41
21129;BME280;10722;51.910;8.352;2023-04-28T12:58:37;100143.50;;;15.52;81.21
21129;BME280;10722;51.910;8.352;2023-04-28T13:01:23;100143.63;;;15.43;81.61
21129;BME280;10722;51.910;8.352;2023-04-28T13:04:08;100170.66;;;15.33;82.95
21129;BME280;10722;51.910;8.352;2023-04-28T13:06:54;100181.44;;;14.96;83.75
21129;BME280;10722;51.910;8.352;2023-04-28T13:09:40;100184.13;;;14.90;84.92
21129;BME280;10722;51.910;8.352;2023-04-28T13:12:25;100207.44;;;15.04;85.79
21129;BME280;10722;51.910;8.352;2023-04-28T13:15:10;100190.00;;;15.10;85.15
21129;BME280;10722;51.910;8.352;2023-04-28T13:17:56;100186.47;;;15.16;85.05
21129;BME280;10722;51.910;8.352;2023-04-28T13:21:02;100176.09;;;15.10;85.06
21129;BME280;10722;51.910;8.352;2023-04-28T13:23:47;100186.69;;;14.91;85.52
21129;BME280;10722;51.910;8.352;2023-04-28T13:26:32;100196.22;;;14.95;85.72
21129;BME280;10722;51.910;8.352;2023-04-28T13:29:17;100191.03;;;14.91;86.15
21129;BME280;10722;51.910;8.352;2023-04-28T13:32:03;100189.28;;;14.93;86.66
21129;BME280;10722;51.910;8.352;2023-04-28T13:34:49;100195.44;;;14.83;86.77
21129;BME280;10722;51.910;8.352;2023-04-28T13:37:35;100184.13;;;14.87;86.85
21129;BME280;10722;51.910;8.352;2023-04-28T13:40:20;100192.78;;;14.89;87.34
21129;BME280;10722;51.910;8.352;2023-04-28T13:43:05;100199.78;;;14.87;87.41
21129;BME280;10722;51.910;8.352;2023-04-28T13:45:52;100211.03;;;14.86;87.96
21129;BME280;10722;51.910;8.352;2023-04-28T13:48:38;100205.81;;;14.89;87.93
21129;BME280;10722;51.910;8.352;2023-04-28T13:51:23;100204.03;;;14.95;88.12
21129;BME280;10722;51.910;8.352;2023-04-28T13:54:09;100215.34;;;14.93;89.05
21129;BME280;10722;51.910;8.352;2023-04-28T13:56:56;100231.97;;;14.73;90.78
21129;BME280;10722;51.910;8.352;2023-04-28T13:59:41;100242.47;;;14.61;92.85
21129;BME280;10722;51.910;8.352;2023-04-28T14:02:26;100245.97;;;14.49;94.59
21129;BME280;10722;51.910;8.352;2023-04-28T14:05:12;100255.53;;;14.56;95.42
21129;BME280;10722;51.910;8.352;2023-04-28T14:07:57;100255.63;;;14.33;97.08
21129;BME280;10722;51.910;8.352;2023-04-28T14:10:43;100260.00;;;14.25;99.13
21129;BME280;10722;51.910;8.352;2023-04-28T14:13:28;100260.03;;;14.22;100.00
21129;BME280;10722;51.910;8.352;2023-04-28T14:16:13;100265.25;;;14.15;100.00
21129;BME280;10722;51.910;8.352;2023-04-28T14:18:58;100262.69;;;14.04;100.00
21129;BME280;10722;51.910;8.352;2023-04-28T14:21:44;100267.94;;;13.98;100.00
21129;BME280;10722;51.910;8.352;2023-04-28T14:24:29;100264.47;;;13.89;100.00
21129;BME280;10722;51.910;8.352;2023-04-28T14:27:14;100268.81;;;13.90;100.00
21129;BME280;10722;51.910;8.352;2023-04-28T14:29:59;100261.88;;;13.89;100.00
21129;BME280;10722;51.910;8.352;2023-04-28T14:32:44;100264.47;;;13.93;100.00
21129;BME280;10722;51.910;8.352;2023-04-28T14:35:29;100259.22;;;14.02;100.00
21129;BME280;10722;51.910;8.352;2023-04-28T14:38:15;100255.78;;;14.03;100.00
21129;BME280;10722;51.910;8.352;2023-04-28T14:41:00;100255.75;;;14.06;100.00
21129;BME280;10722;51.910;8.352;2023-04-28T14:43:45;100249.63;;;14.16;100.00
21129;BME280;10722;51.910;8.352;2023-04-28T14:46:31;100244.34;;;14.33;100.00
21129;BME280;10722;51.910;8.352;2023-04-28T14:49:16;100246.88;;;14.48;100.00
21129;BME280;10722;51.910;8.352;2023-04-28T14:52:01;100230.44;;;14.42;100.00
21129;BME280;10722;51.910;8.352;2023-04-28T14:54:50;100231.25;;;14.48;100.00
21129;BME280;10722;51.910;8.352;2023-04-28T14:57:34;100230.38;;;14.54;100.00